Time;durP1;ratioP1;P1;durP2;ratioP2;P2;SDS_P1;SDS_P2;PMS_P1;PMS_P2;Temp;Humidity;BMP_temperature;BMP_pressure;BME280_temperature;BME280_humidity;BME280_pressure;Samples;Min_cycle;Max_cycle;Signal;HPM_P1;HPM_P2
2021/03/07 00:00:14;;;;;;;8.68;4.53;;;;;;;3.30;83.17;101889.50;4955030;28;20111;-81
2021/03/07 00:02:41;;;;;;;6.88;4.88;;;;;;;3.18;82.86;101888.75;4977271;28;20058;-80
2021/03/07 00:05:10;;;;;;;7.10;5.07;;;;;;;3.08;83.43;101885.34;4971615;28;20085;-80
2021/03/07 00:07:38;;;;;;;6.32;4.18;;;;;;;3.21;83.03;101875.72;4948322;28;20074;-82
2021/03/07 00:10:06;;;;;;;9.00;4.53;;;;;;;3.20;82.58;101874.00;4956252;28;20070;-82
2021/03/07 00:12:34;;;;;;;8.82;4.53;;;;;;;3.23;82.71;101876.53;4971805;28;20066;-81
2021/03/07 00:15:05;;;;;;;7.82;5.40;;;;;;;3.31;82.64;101874.75;4954464;28;20271;-83
2021/03/07 00:17:31;;;;;;;8.38;4.80;;;;;;;3.24;82.44;101865.25;4958625;28;20055;-82
2021/03/07 00:19:58;;;;;;;6.20;4.45;;;;;;;3.43;82.24;101869.44;4970294;28;20081;-83
2021/03/07 00:22:25;;;;;;;9.30;4.85;;;;;;;3.38;82.34;101866.03;4947388;28;20128;-80
2021/03/07 00:24:53;;;;;;;8.90;4.55;;;;;;;3.38;82.17;101860.81;4975313;28;20047;-80
2021/03/07 00:27:20;;;;;;;7.38;4.05;;;;;;;3.32;81.71;101850.44;4970622;28;20078;-80
2021/03/07 00:29:46;;;;;;;6.38;3.80;;;;;;;3.16;82.30;101844.53;4958240;28;20074;-82
2021/03/07 00:32:13;;;;;;;7.65;4.00;;;;;;;3.22;82.28;101849.66;4961000;28;20043;-79
2021/03/07 00:34:40;;;;;;;6.90;3.70;;;;;;;3.10;81.30;101841.97;4982863;23;20045;-80
2021/03/07 00:37:07;;;;;;;6.60;3.50;;;;;;;3.21;80.25;101836.69;4991591;28;20196;-80
2021/03/07 00:39:34;;;;;;;9.73;4.32;;;;;;;3.05;81.05;101831.59;5001542;28;20049;-78
2021/03/07 00:42:00;;;;;;;9.60;4.28;;;;;;;3.21;80.36;101839.28;4990973;28;20047;-77
2021/03/07 00:44:28;;;;;;;7.57;3.83;;;;;;;3.24;80.31;101832.31;4967988;28;20110;-80
2021/03/07 00:46:55;;;;;;;12.70;5.00;;;;;;;3.16;80.21;101836.72;4986328;28;20055;-79
2021/03/07 00:49:23;;;;;;;7.32;4.43;;;;;;;3.05;80.82;101839.41;4989848;28;20082;-79
2021/03/07 00:51:50;;;;;;;11.63;4.47;;;;;;;3.09;81.08;101834.19;4992586;28;20050;-80
2021/03/07 00:54:16;;;;;;;9.70;4.38;;;;;;;3.05;81.47;101828.13;4992308;28;20109;-78
2021/03/07 00:56:43;;;;;;;6.65;3.60;;;;;;;2.98;81.60;101821.28;5003552;28;20086;-81
2021/03/07 00:59:11;;;;;;;10.82;4.53;;;;;;;2.87;82.69;101818.75;4976656;28;20054;-78
2021/03/07 01:01:37;;;;;;;12.10;4.47;;;;;;;2.94;82.33;101819.56;4997878;28;20054;-78
2021/03/07 01:04:06;;;;;;;8.15;4.05;;;;;;;3.05;82.20;101817.72;4994651;28;20092;-78
2021/03/07 01:06:33;;;;;;;7.72;4.53;;;;;;;3.11;81.87;101809.00;5009716;28;20042;-79
2021/03/07 01:09:01;;;;;;;8.15;4.35;;;;;;;3.23;82.20;101808.88;4983416;28;20130;-78
2021/03/07 01:11:27;;;;;;;9.43;5.20;;;;;;;2.92;84.23;101813.50;4998000;28;20048;-79
2021/03/07 01:13:54;;;;;;;10.68;5.88;;;;;;;2.94;84.39;101806.56;5006087;28;20121;-80
2021/03/07 01:16:22;;;;;;;10.02;5.65;;;;;;;3.08;84.20;101803.84;5000869;28;20097;-78
2021/03/07 01:18:49;;;;;;;13.10;6.55;;;;;;;2.94;85.16;101802.22;4992138;28;20115;-79
2021/03/07 01:21:16;;;;;;;11.55;5.22;;;;;;;2.95;85.21;101800.47;4986316;28;20074;-80
2021/03/07 01:23:43;;;;;;;8.02;5.20;;;;;;;2.72;85.93;101798.06;5005077;28;20065;-78
2021/03/07 01:26:10;;;;;;;10.18;6.03;;;;;;;2.52;86.93;101795.59;5010560;28;20078;-79
2021/03/07 01:28:37;;;;;;;8.73;4.75;;;;;;;2.46;86.71;101791.31;4995060;28;20073;-78
2021/03/07 01:31:03;;;;;;;7.18;4.75;;;;;;;2.36;87.05;101789.66;4986247;28;20105;-78
2021/03/07 01:33:32;;;;;;;8.80;4.60;;;;;;;2.42;86.53;101776.59;5008315;28;20045;-76
2021/03/07 01:36:02;;;;;;;9.98;5.70;;;;;;;2.58;85.88;101768.72;5005328;28;20127;-80
2021/03/07 01:38:30;;;;;;;9.80;5.18;;;;;;;2.62;85.58;101770.41;5017672;28;20042;-80
2021/03/07 01:40:58;;;;;;;7.22;4.82;;;;;;;2.61;85.85;101771.28;4988261;28;20493;-79
2021/03/07 01:43:25;;;;;;;10.18;4.95;;;;;;;2.79;85.34;101766.81;4978609;28;20102;-79
2021/03/07 01:45:52;;;;;;;10.23;5.25;;;;;;;2.79;85.09;101764.22;4976850;28;20110;-81
2021/03/07 01:48:20;;;;;;;8.65;4.95;;;;;;;2.85;85.09;101767.63;4977404;28;20112;-79
2021/03/07 01:50:52;;;;;;;10.13;5.13;;;;;;;2.85;85.21;101762.44;4998773;28;20092;-79
2021/03/07 01:53:21;;;;;;;12.63;5.50;;;;;;;2.82;86.33;101752.03;4981609;28;20435;-79
2021/03/07 01:55:50;;;;;;;10.45;6.35;;;;;;;2.87;85.89;101745.91;4991531;28;20057;-78
2021/03/07 01:58:22;;;;;;;8.55;6.57;;;;;;;2.65;86.70;101745.25;4988478;28;20139;-79
2021/03/07 02:00:50;;;;;;;10.57;6.00;;;;;;;2.61;86.96;101740.06;4986089;28;20073;-78
2021/03/07 02:03:16;;;;;;;10.88;5.72;;;;;;;2.63;86.69;101733.16;4994744;28;20956;-81
2021/03/07 02:05:45;;;;;;;8.73;5.05;;;;;;;2.65;86.52;101734.84;4975557;28;20042;-79
2021/03/07 02:08:17;;;;;;;9.60;4.85;;;;;;;2.55;86.01;101738.41;5001463;28;20383;-79
2021/03/07 02:10:50;;;;;;;12.77;5.13;;;;;;;2.59;85.44;101729.72;4994381;28;20053;-79
2021/03/07 02:13:37;;;;;;;8.93;4.60;;;;;;;2.64;84.61;101722.72;5005083;28;20050;-78
2021/03/07 02:16:22;;;;;;;6.97;4.78;;;;;;;2.54;85.69;101732.34;4981362;28;20619;-80
2021/03/07 02:18:51;;;;;;;7.32;4.45;;;;;;;2.69;84.96;101725.28;4973933;28;20070;-79
2021/03/07 02:21:23;;;;;;;7.25;4.80;;;;;;;2.73;84.43;101725.25;5006076;28;20060;-79
2021/03/07 02:24:12;;;;;;;7.97;4.20;;;;;;;2.71;84.59;101721.81;5000598;28;20042;-80
2021/03/07 02:26:43;;;;;;;9.75;4.63;;;;;;;2.63;84.95;101718.41;4978625;28;20065;-79
2021/03/07 02:29:10;;;;;;;8.38;4.47;;;;;;;2.55;85.35;101709.81;4976049;28;20070;-78
2021/03/07 02:31:41;;;;;;;6.40;4.03;;;;;;;2.64;84.45;101704.53;5000228;28;20248;-79
2021/03/07 02:34:24;;;;;;;10.60;4.25;;;;;;;2.44;84.33;101715.09;4995591;28;20081;-78
2021/03/07 02:36:57;;;;;;;5.05;3.45;;;;;;;2.48;83.93;101709.00;4984699;28;20046;-79
2021/03/07 02:39:27;;;;;;;8.02;3.72;;;;;;;2.43;83.20;101709.91;4985653;28;20109;-78
2021/03/07 02:45:09;;;;;;;5.75;2.85;;;;;;;2.38;81.64;101703.88;4955720;28;20114;-87
2021/03/07 02:47:36;;;;;;;5.65;3.05;;;;;;;2.34;80.80;101694.38;4939945;28;20131;-87
2021/03/07 02:50:08;;;;;;;6.53;2.50;;;;;;;2.31;80.52;101705.69;4959953;28;20027;-87
2021/03/07 02:52:37;;;;;;;9.80;2.30;;;;;;;2.23;79.88;101702.25;4957630;28;20049;-87
2021/03/07 02:55:06;;;;;;;9.18;2.67;;;;;;;2.26;77.67;101708.31;4947175;28;20039;-88
2021/03/07 02:57:32;;;;;;;4.55;1.85;;;;;;;2.19;77.52;101700.56;4940117;29;20099;-87
2021/03/07 03:00:01;;;;;;;7.00;1.77;;;;;;;2.28;76.19;101692.69;4934806;29;20031;-87
2021/03/07 03:02:30;;;;;;;3.28;1.58;;;;;;;2.23;75.65;101694.47;4957904;28;20043;-87
2021/03/07 03:04:58;;;;;;;5.47;1.33;;;;;;;2.16;75.11;101695.38;4928690;29;20058;-86
2021/03/07 03:07:26;;;;;;;7.15;2.15;;;;;;;2.15;75.29;101688.47;4955771;28;20070;-87
2021/03/07 03:09:54;;;;;;;2.55;1.50;;;;;;;2.09;75.04;101684.19;4944249;29;20098;-87
2021/03/07 03:12:21;;;;;;;4.97;1.50;;;;;;;2.07;75.03;101685.91;4956870;28;20055;-88
2021/03/07 03:14:48;;;;;;;6.13;1.58;;;;;;;2.05;74.74;101673.81;4941628;29;20096;-88
2021/03/07 03:17:16;;;;;;;13.25;1.80;;;;;;;2.04;74.67;101672.97;4944212;28;20037;-87
2021/03/07 03:19:44;;;;;;;5.15;1.30;;;;;;;2.05;74.84;101668.63;4980437;28;20050;-87
2021/03/07 03:22:12;;;;;;;6.05;1.75;;;;;;;1.94;75.19;101666.97;4962503;28;20031;-87
2021/03/07 03:24:38;;;;;;;7.57;1.52;;;;;;;1.95;75.08;101666.09;4961346;28;20019;-87
2021/03/07 03:27:06;;;;;;;5.32;1.52;;;;;;;1.93;74.94;101662.63;4943010;28;20097;-88
2021/03/07 03:29:33;;;;;;;4.25;1.30;;;;;;;1.89;75.32;101673.94;4946396;28;20042;-88
2021/03/07 03:32:03;;;;;;;7.13;1.80;;;;;;;1.95;75.63;101660.91;4945292;28;20082;-87
2021/03/07 03:34:30;;;;;;;5.78;1.80;;;;;;;1.87;75.95;101664.41;4942084;29;20115;-87
2021/03/07 03:36:57;;;;;;;4.18;1.48;;;;;;;1.97;75.76;101663.47;4935433;29;20044;-87
2021/03/07 03:39:27;;;;;;;5.07;1.65;;;;;;;1.99;75.93;101660.00;4956915;29;20560;-87
2021/03/07 03:42:00;;;;;;;4.40;2.30;;;;;;;2.06;75.70;101646.97;4956060;28;20058;-88
2021/03/07 03:44:34;;;;;;;7.72;1.88;;;;;;;1.80;77.52;101660.13;4917161;29;20052;-88
2021/03/07 03:47:02;;;;;;;6.38;1.65;;;;;;;1.79;77.20;101659.25;4925630;29;20902;-87
2021/03/07 03:49:52;;;;;;;7.60;2.83;;;;;;;1.81;77.77;101657.53;4937944;28;20039;-88
2021/03/07 03:52:20;;;;;;;7.63;1.98;;;;;;;1.75;78.28;101660.16;4959525;28;20083;-87
2021/03/07 03:55:06;;;;;;;6.88;2.28;;;;;;;1.93;77.95;101648.78;4957576;28;20032;-86
2021/03/07 03:57:33;;;;;;;4.25;1.98;;;;;;;1.78;78.03;101655.81;4971382;28;20058;-87
2021/03/07 04:00:01;;;;;;;8.90;2.80;;;;;;;1.77;78.25;101653.25;4953989;28;20023;-87
2021/03/07 04:02:28;;;;;;;4.50;2.08;;;;;;;1.69;78.42;101650.69;4935432;29;20044;-87
2021/03/07 04:04:57;;;;;;;8.75;2.55;;;;;;;1.51;79.21;101645.59;4924100;29;20028;-87
2021/03/07 04:07:25;;;;;;;9.50;2.67;;;;;;;1.57;78.74;101649.88;4955935;28;20047;-88
2021/03/07 04:09:53;;;;;;;10.13;2.10;;;;;;;1.68;77.76;101642.91;4941622;28;20044;-87
2021/03/07 04:12:21;;;;;;;8.23;2.35;;;;;;;1.56;77.92;101643.84;4931695;28;20101;-88
2021/03/07 04:14:49;;;;;;;9.52;2.33;;;;;;;1.52;78.30;101657.69;4911737;28;20096;-88
2021/03/07 04:17:21;;;;;;;7.15;2.83;;;;;;;1.61;78.26;101639.47;4924921;29;20047;-87
2021/03/07 04:19:48;;;;;;;9.38;2.45;;;;;;;1.63;77.57;101648.13;4950124;28;20039;-88
2021/03/07 04:22:15;;;;;;;5.25;2.38;;;;;;;1.63;77.93;101642.94;4928630;29;20047;-87
2021/03/07 04:24:42;;;;;;;6.65;2.45;;;;;;;1.56;78.20;101638.63;4942123;28;20056;-87
2021/03/07 04:27:09;;;;;;;8.95;4.05;;;;;;;1.65;77.95;101629.94;4939309;29;20040;-87
2021/03/07 04:29:37;;;;;;;4.47;2.80;;;;;;;1.50;78.25;101639.53;4920976;29;20048;-89
2021/03/07 04:32:05;;;;;;;8.10;2.75;;;;;;;1.62;78.64;101632.53;4942918;28;20055;-87
2021/03/07 04:34:35;;;;;;;7.78;2.15;;;;;;;1.65;78.21;101637.72;4947445;28;20175;-87
2021/03/07 04:37:02;;;;;;;9.68;3.10;;;;;;;1.55;78.27;101623.09;4929249;29;20048;-86
2021/03/07 04:39:30;;;;;;;12.98;2.63;;;;;;;1.63;77.91;101621.31;4957646;28;20032;-87
2021/03/07 04:41:58;;;;;;;8.25;2.55;;;;;;;1.63;77.28;101626.50;4941225;28;20028;-86
2021/03/07 04:44:40;;;;;;;5.13;2.40;;;;;;;1.51;78.55;101627.44;4991620;28;20059;-87
2021/03/07 04:47:07;;;;;;;8.68;2.58;;;;;;;1.73;78.04;101620.38;4957414;29;20075;-87
2021/03/07 04:49:34;;;;;;;12.27;2.75;;;;;;;1.76;77.17;101626.41;4953294;28;20117;-87
2021/03/07 04:52:01;;;;;;;7.85;2.58;;;;;;;1.59;77.65;101625.66;4958748;28;20084;-86
2021/03/07 04:54:27;;;;;;;6.95;2.28;;;;;;;1.55;77.68;101631.72;4973845;29;20051;-87
2021/03/07 04:56:54;;;;;;;6.22;2.90;;;;;;;1.66;77.12;101619.53;4968916;28;20031;-86
2021/03/07 04:59:21;;;;;;;7.32;2.90;;;;;;;1.70;77.54;101617.78;5007093;28;20057;-86
2021/03/07 05:01:48;;;;;;;8.48;2.65;;;;;;;1.44;77.66;101618.84;4961900;29;20050;-87
2021/03/07 05:04:15;;;;;;;10.57;2.55;;;;;;;1.42;78.04;101614.50;4980886;28;20043;-87
2021/03/07 05:06:43;;;;;;;8.65;2.50;;;;;;;1.52;77.83;101623.94;4976711;28;20123;-87
2021/03/07 05:09:10;;;;;;;7.07;2.65;;;;;;;1.61;77.57;101610.91;4956682;29;20075;-87
2021/03/07 05:11:40;;;;;;;6.68;1.92;;;;;;;1.66;77.83;101610.91;4971630;28;20034;-87
2021/03/07 05:14:07;;;;;;;6.72;2.30;;;;;;;1.65;76.76;101604.84;4972953;28;20050;-87
2021/03/07 05:16:34;;;;;;;9.27;2.63;;;;;;;1.68;76.87;101601.38;4996222;28;20062;-87
2021/03/07 05:19:02;;;;;;;8.30;2.72;;;;;;;1.56;77.40;101604.03;4995534;28;20030;-89
2021/03/07 05:21:29;;;;;;;3.95;2.50;;;;;;;1.55;76.90;101602.31;4961524;28;20031;-87
2021/03/07 05:24:02;;;;;;;6.60;3.00;;;;;;;1.72;76.52;101600.50;4947548;28;20039;-87
2021/03/07 05:26:29;;;;;;;6.38;2.53;;;;;;;1.65;76.46;101599.66;4961939;28;20041;-87
2021/03/07 05:28:56;;;;;;;8.20;3.00;;;;;;;1.54;76.59;101598.00;4977980;28;20031;-88
2021/03/07 05:31:23;;;;;;;9.88;2.80;;;;;;;1.52;76.78;101593.69;4960260;29;20402;-87
2021/03/07 05:33:50;;;;;;;9.15;2.47;;;;;;;1.73;76.20;101584.03;4991527;28;20042;-88
2021/03/07 05:36:17;;;;;;;6.60;2.80;;;;;;;1.61;75.83;101582.38;4990573;28;20115;-88
2021/03/07 05:38:44;;;;;;;13.85;2.75;;;;;;;1.56;76.56;101573.75;4970455;29;20071;-87
2021/03/07 05:41:12;;;;;;;5.57;1.98;;;;;;;1.62;76.35;101573.75;4958126;29;20043;-88
2021/03/07 05:43:40;;;;;;;10.45;2.42;;;;;;;1.63;75.20;101572.00;4954390;28;20046;-87
2021/03/07 05:46:08;;;;;;;8.23;2.70;;;;;;;1.64;75.16;101579.78;4948692;29;20115;-88
2021/03/07 05:48:35;;;;;;;2.95;1.63;;;;;;;1.70;75.13;101569.34;4948785;28;20050;-87
2021/03/07 05:51:03;;;;;;;4.63;2.60;;;;;;;1.60;74.99;101574.59;4956041;28;20620;-87
2021/03/07 05:53:31;;;;;;;6.75;2.67;;;;;;;1.68;75.33;101560.72;4968913;28;20127;-86
2021/03/07 05:55:58;;;;;;;6.53;2.10;;;;;;;1.75;75.04;101574.50;4956026;29;20063;-87
2021/03/07 05:58:28;;;;;;;9.18;2.17;;;;;;;1.90;73.78;101566.59;4955229;28;20130;-87
2021/03/07 06:00:55;;;;;;;4.82;2.25;;;;;;;1.55;74.43;101568.59;4961408;28;20074;-88
2021/03/07 06:03:22;;;;;;;3.75;1.92;;;;;;;1.56;74.93;101565.97;4961342;29;20039;-87
2021/03/07 06:05:50;;;;;;;7.30;2.78;;;;;;;1.55;75.04;101572.03;4928449;29;20134;-88
2021/03/07 06:08:19;;;;;;;3.95;2.17;;;;;;;1.52;74.88;101572.91;4955336;28;20124;-87
2021/03/07 06:10:46;;;;;;;4.88;2.03;;;;;;;1.71;74.05;101559.81;4926991;29;20048;-88
2021/03/07 06:13:13;;;;;;;6.18;2.33;;;;;;;1.80;74.17;101561.47;4947784;28;20078;-86
2021/03/07 06:15:50;;;;;;;14.15;2.65;;;;;;;1.87;74.10;101566.63;4940372;28;20066;-86
2021/03/07 06:18:19;;;;;;;4.07;2.47;;;;;;;1.85;73.66;101559.72;4959109;28;20043;-87
2021/03/07 06:20:51;;;;;;;8.20;2.05;;;;;;;1.68;74.45;101552.91;4967641;28;20050;-87
2021/03/07 06:23:18;;;;;;;7.18;3.00;;;;;;;1.83;74.45;101561.47;4941619;29;20059;-87
2021/03/07 06:25:50;;;;;;;7.40;2.03;;;;;;;1.57;74.79;101565.09;4958832;28;20050;-87
2021/03/07 06:28:23;;;;;;;10.13;2.15;;;;;;;1.60;74.65;101562.50;4951268;28;20747;-87
2021/03/07 06:30:50;;;;;;;5.88;2.30;;;;;;;1.75;74.00;101567.56;4943833;29;20039;-87
2021/03/07 06:33:34;;;;;;;3.78;2.25;;;;;;;1.87;73.65;101561.41;4971474;28;20047;-88
2021/03/07 06:36:22;;;;;;;10.15;2.42;;;;;;;1.65;73.95;101560.72;4959871;28;20062;-87
2021/03/07 06:38:59;;;;;;;9.88;2.22;;;;;;;1.76;73.33;101563.25;4954665;28;20051;-88
2021/03/07 06:41:30;;;;;;;5.60;1.73;;;;;;;1.85;73.07;101564.91;4956723;28;20054;-88
2021/03/07 06:44:13;;;;;;;4.30;1.83;;;;;;;1.64;72.99;101550.34;4960502;28;20102;-87
2021/03/07 06:46:42;;;;;;;3.72;2.10;;;;;;;1.67;72.87;101563.31;4961888;28;20043;-87
2021/03/07 06:49:25;;;;;;;12.18;2.60;;;;;;;1.86;72.33;101559.72;4964634;29;20115;-87
2021/03/07 06:51:52;;;;;;;9.00;2.72;;;;;;;1.98;71.62;101558.72;4971250;29;20031;-87
2021/03/07 06:54:21;;;;;;;6.28;1.90;;;;;;;1.77;71.99;101557.19;4957199;28;20059;-88
2021/03/07 06:56:49;;;;;;;5.70;1.70;;;;;;;1.90;71.65;101557.97;4970401;29;20055;-88
2021/03/07 06:59:18;;;;;;;11.05;1.70;;;;;;;1.94;71.26;101562.25;4967315;29;20086;-87
2021/03/07 07:01:50;;;;;;;4.55;1.95;;;;;;;1.74;72.15;101558.06;4967940;28;20067;-88
2021/03/07 07:04:17;;;;;;;11.90;2.17;;;;;;;1.72;71.86;101546.84;4973978;28;20070;-88
2021/03/07 07:06:59;;;;;;;5.45;1.75;;;;;;;1.85;71.19;101552.81;4958428;29;20074;-89
2021/03/07 07:09:26;;;;;;;9.15;3.53;;;;;;;1.84;71.63;101556.25;4950435;29;20047;-88
2021/03/07 07:11:54;;;;;;;6.47;2.15;;;;;;;1.81;71.70;101548.50;4971042;28;20098;-87
2021/03/07 07:14:40;;;;;;;8.70;2.00;;;;;;;1.94;71.47;101551.88;4967377;28;20094;-87
2021/03/07 07:17:09;;;;;;;7.85;2.25;;;;;;;1.82;71.19;101552.81;4948225;28;20051;-88
2021/03/07 07:19:47;;;;;;;8.23;1.83;;;;;;;1.99;71.25;101550.09;4947669;28;20070;-88
2021/03/07 07:22:16;;;;;;;4.65;2.00;;;;;;;2.06;70.94;101546.53;4924384;29;20160;-88
2021/03/07 07:24:44;;;;;;;6.68;1.80;;;;;;;1.99;71.18;101542.28;4929977;29;20043;-88
2021/03/07 07:27:11;;;;;;;8.73;2.10;;;;;;;2.22;70.35;101550.72;4955312;29;20568;-88
2021/03/07 07:29:41;;;;;;;22.45;3.58;;;;;;;2.05;70.80;101546.56;4927030;29;20040;-88
2021/03/07 07:32:47;;;;;;;8.75;1.88;;;;;;;1.94;70.85;101542.34;4956815;29;20086;-89
2021/03/07 07:35:18;;;;;;;6.72;1.88;;;;;;;2.24;70.14;101550.69;4953064;29;20066;-88
2021/03/07 07:37:54;;;;;;;8.27;2.15;;;;;;;2.41;69.40;101542.75;4925588;29;20147;-87
2021/03/07 07:40:42;;;;;;;5.25;2.00;;;;;;;2.23;70.11;101533.41;4937782;28;20049;-88
2021/03/07 07:43:10;;;;;;;5.25;2.20;;;;;;;2.48;70.82;101531.41;4959382;28;20464;-88
2021/03/07 07:45:37;;;;;;;5.30;1.98;;;;;;;2.86;69.34;101546.56;4960416;29;20130;-88
2021/03/07 07:48:08;;;;;;;5.18;2.17;;;;;;;2.58;68.94;101539.97;4952580;29;20043;-88
2021/03/07 07:50:39;;;;;;;6.72;3.15;;;;;;;2.37;69.15;101541.91;4951037;28;20415;-88
2021/03/07 07:53:15;;;;;;;5.05;1.67;;;;;;;2.20;69.54;101538.63;4944838;29;20046;-88
2021/03/07 07:55:57;;;;;;;4.20;1.77;;;;;;;2.54;69.12;101527.00;4967629;29;20051;-88
2021/03/07 07:58:34;;;;;;;5.75;1.50;;;;;;;2.50;68.77;101535.69;4941486;29;20036;-87
2021/03/07 08:01:12;;;;;;;4.05;1.65;;;;;;;2.51;68.64;101531.38;4967030;29;20063;-87
2021/03/07 08:03:47;;;;;;;6.95;2.85;;;;;;;2.68;67.60;101524.22;4951513;28;20062;-87
2021/03/07 08:06:35;;;;;;;5.57;1.77;;;;;;;2.48;67.98;101519.28;4949357;29;20784;-87
2021/03/07 08:09:44;;;;;;;7.68;1.83;;;;;;;2.29;68.45;101510.78;4981344;28;20047;-88
2021/03/07 08:12:43;;;;;;;10.07;3.17;;;;;;;2.59;67.66;101510.50;4966987;29;20031;-88
2021/03/07 08:15:25;;;;;;;9.88;2.13;;;;;;;2.60;67.22;101513.06;4937896;28;20120;-87
2021/03/07 08:18:06;;;;;;;6.55;2.00;;;;;;;2.40;67.56;101518.50;4966785;29;20039;-88
2021/03/07 08:20:54;;;;;;;3.55;1.60;;;;;;;2.83;69.81;101512.78;4959675;28;20107;-88
2021/03/07 08:23:24;;;;;;;5.28;1.80;;;;;;;2.97;66.32;101513.47;4964732;28;20048;-88
2021/03/07 08:25:51;;;;;;;4.43;1.42;;;;;;;2.71;66.23;101515.56;4970446;28;20037;-88
2021/03/07 08:28:25;;;;;;;7.68;2.05;;;;;;;2.56;67.40;101513.13;4968344;29;20075;-88
2021/03/07 08:30:55;;;;;;;5.15;1.60;;;;;;;2.66;66.70;101513.00;4952892;28;20070;-88
2021/03/07 08:33:37;;;;;;;3.13;1.83;;;;;;;2.65;66.95;101511.25;4964828;28;20061;-87
2021/03/07 08:36:15;;;;;;;4.90;1.63;;;;;;;2.98;66.15;101512.59;4978936;28;20110;-87
2021/03/07 08:38:54;;;;;;;5.03;1.75;;;;;;;2.98;66.20;101509.13;4971454;29;20051;-88
2021/03/07 08:41:46;;;;;;;3.38;1.90;;;;;;;2.91;66.29;101510.94;4970743;28;20043;-87
2021/03/07 08:44:13;;;;;;;6.53;1.80;;;;;;;3.11;65.84;101502.88;4981281;28;20020;-86
2021/03/07 08:46:40;;;;;;;12.82;2.55;;;;;;;3.17;65.09;101496.72;4973263;28;20028;-88
2021/03/07 08:49:13;;;;;;;10.07;1.90;;;;;;;2.50;67.34;101499.31;4978715;28;20028;-86
2021/03/07 08:51:44;;;;;;;9.88;1.80;;;;;;;2.36;68.49;101500.34;4951905;29;20047;-85
2021/03/07 08:54:15;;;;;;;2.85;1.55;;;;;;;2.69;67.45;101506.88;4944197;28;20134;-87
2021/03/07 08:56:43;;;;;;;9.70;1.80;;;;;;;2.95;66.40;101504.81;4963943;28;20143;-88
2021/03/07 08:59:11;;;;;;;7.00;2.13;;;;;;;2.72;67.10;101499.91;4942511;29;20110;-87
2021/03/07 09:01:38;;;;;;;7.18;1.60;;;;;;;2.70;67.23;101491.28;4965469;28;20043;-88
2021/03/07 09:04:08;;;;;;;6.35;1.70;;;;;;;2.93;66.30;101493.59;4950280;29;20046;-87
2021/03/07 09:06:45;;;;;;;6.20;1.90;;;;;;;3.08;65.65;101494.25;4946810;29;20059;-86
2021/03/07 09:09:22;;;;;;;5.47;1.90;;;;;;;3.13;65.91;101490.69;4964043;29;20118;-88
2021/03/07 09:11:57;;;;;;;6.55;2.00;;;;;;;2.96;66.16;101490.06;4963463;28;20082;-87
2021/03/07 09:14:40;;;;;;;8.10;2.05;;;;;;;2.96;66.49;101479.66;4962835;28;20074;-87
2021/03/07 09:17:18;;;;;;;5.25;1.88;;;;;;;2.68;67.43;101486.97;4970472;28;20075;-87
2021/03/07 09:19:46;;;;;;;5.10;2.05;;;;;;;2.78;66.94;101492.03;4967612;29;20035;-87
2021/03/07 09:22:24;;;;;;;5.22;2.50;;;;;;;2.88;66.96;101482.41;4977860;28;20063;-87
2021/03/07 09:24:55;;;;;;;10.10;2.05;;;;;;;3.14;66.69;101483.75;4959070;28;20073;-86
2021/03/07 09:27:30;;;;;;;9.20;2.38;;;;;;;3.15;66.35;101482.88;4963831;28;20063;-87
2021/03/07 09:30:01;;;;;;;3.55;1.80;;;;;;;3.21;66.30;101481.06;4951448;29;20107;-87
2021/03/07 09:32:29;;;;;;;8.90;2.70;;;;;;;3.21;66.09;101488.00;4965200;29;20027;-87
2021/03/07 09:34:58;;;;;;;9.02;1.90;;;;;;;3.22;66.01;101471.50;4979221;28;20043;-87
2021/03/07 09:37:28;;;;;;;6.22;2.20;;;;;;;3.35;66.04;101470.44;4929559;29;20091;-88
2021/03/07 09:39:56;;;;;;;4.80;2.20;;;;;;;3.26;65.63;101467.97;4941087;29;20078;-88
2021/03/07 09:42:23;;;;;;;7.47;2.20;;;;;;;3.28;65.95;101472.25;4953909;28;20097;-88
2021/03/07 09:44:50;;;;;;;10.45;2.65;;;;;;;3.38;65.52;101473.00;4963795;28;20118;-87
2021/03/07 09:47:23;;;;;;;5.10;2.15;;;;;;;3.37;65.34;101468.66;4943925;29;20070;-88
2021/03/07 09:49:52;;;;;;;4.97;2.40;;;;;;;3.06;66.37;101468.25;4925945;29;20073;-88
2021/03/07 09:52:19;;;;;;;6.70;2.33;;;;;;;3.20;66.75;101473.28;4949346;29;20067;-87
2021/03/07 09:54:56;;;;;;;6.88;2.60;;;;;;;3.02;66.96;101464.00;4947323;29;20436;-85
2021/03/07 09:57:41;;;;;;;5.03;2.10;;;;;;;3.03;66.85;101474.38;4945358;29;20047;-85
2021/03/07 10:00:08;;;;;;;12.55;2.45;;;;;;;3.11;66.28;101466.47;4947784;29;20050;-86
2021/03/07 10:02:36;;;;;;;6.30;2.42;;;;;;;3.26;67.33;101470.56;4943931;29;20134;-86
2021/03/07 10:05:13;;;;;;;10.10;2.65;;;;;;;3.26;65.98;101470.56;4944609;29;20059;-86
2021/03/07 10:07:40;;;;;;;6.85;2.65;;;;;;;3.13;66.75;101459.47;4935647;29;20074;-86
2021/03/07 10:10:17;;;;;;;9.30;2.28;;;;;;;3.31;66.21;101466.16;4941637;29;20083;-86
2021/03/07 10:12:47;;;;;;;10.25;2.90;;;;;;;3.15;66.90;101462.06;4914485;29;20062;-84
2021/03/07 10:15:48;;;;;;;5.68;2.85;;;;;;;3.24;67.20;101460.19;4951749;28;20106;-84
2021/03/07 10:18:32;;;;;;;6.05;2.70;;;;;;;3.12;67.43;101462.97;4926059;29;20042;-86
2021/03/07 10:21:00;;;;;;;7.32;2.30;;;;;;;3.05;67.17;101464.78;4964272;29;20047;-87
2021/03/07 10:23:31;;;;;;;10.52;3.33;;;;;;;2.98;67.47;101457.97;4950802;29;20035;-86
2021/03/07 10:26:04;;;;;;;11.77;3.42;;;;;;;3.26;67.84;101458.41;4954089;29;20050;-87
2021/03/07 10:28:34;;;;;;;5.45;3.40;;;;;;;3.54;66.90;101456.22;4947288;29;20049;-87
2021/03/07 10:31:09;;;;;;;12.68;3.20;;;;;;;3.17;67.14;101450.75;4928843;29;20035;-87
2021/03/07 10:33:39;;;;;;;9.13;3.25;;;;;;;2.97;67.65;101461.47;4953675;29;20098;-86
2021/03/07 10:36:09;;;;;;;8.68;3.30;;;;;;;3.04;67.50;101454.41;4934754;29;20370;-86
2021/03/07 10:38:45;;;;;;;9.68;3.75;;;;;;;3.18;67.39;101460.28;4951108;29;20066;-87
2021/03/07 10:41:32;;;;;;;10.10;3.35;;;;;;;3.29;66.83;101452.31;4955439;28;20047;-86
2021/03/07 10:44:05;;;;;;;14.98;3.55;;;;;;;3.34;65.77;101453.09;4954302;29;20618;-86
2021/03/07 10:46:41;;;;;;;16.85;3.80;;;;;;;3.27;67.05;101456.66;4929996;29;20043;-86
2021/03/07 10:49:24;;;;;;;12.82;3.05;;;;;;;3.13;66.67;101456.03;4954499;28;20498;-87
2021/03/07 10:51:52;;;;;;;11.13;3.63;;;;;;;2.93;66.53;101453.72;4927046;28;20046;-88
2021/03/07 10:54:18;;;;;;;11.95;3.95;;;;;;;3.15;66.80;101449.03;4922415;28;20131;-86
2021/03/07 10:56:46;;;;;;;5.85;3.20;;;;;;;3.27;66.06;101439.31;4936199;29;20617;-86
2021/03/07 10:59:13;;;;;;;9.55;3.40;;;;;;;3.39;65.80;101438.28;4936420;29;20047;-86
2021/03/07 11:01:40;;;;;;;8.45;3.15;;;;;;;3.62;64.84;101445.69;4936916;29;20464;-86
2021/03/07 11:04:08;;;;;;;17.70;3.88;;;;;;;3.42;64.76;101437.34;4938640;29;20054;-86
2021/03/07 11:06:35;;;;;;;17.20;3.72;;;;;;;3.12;65.25;101443.91;4952939;29;20127;-86
2021/03/07 11:09:03;;;;;;;13.60;3.35;;;;;;;3.12;66.04;101438.69;4937304;29;20138;-86
2021/03/07 11:11:33;;;;;;;11.02;3.88;;;;;;;3.27;65.76;101438.44;4953345;28;20221;-87
2021/03/07 11:14:00;;;;;;;26.77;11.93;;;;;;;2.95;66.20;101433.75;4961716;29;20118;-89
2021/03/07 11:16:27;;;;;;;12.13;3.67;;;;;;;3.11;65.98;101427.44;4964105;28;20609;-87
2021/03/07 11:19:14;;;;;;;12.93;3.38;;;;;;;2.98;66.88;101431.09;4934698;28;20063;-88
2021/03/07 11:21:41;;;;;;;7.97;3.53;;;;;;;3.10;66.37;101428.28;4921533;28;20555;-87
2021/03/07 11:24:08;;;;;;;6.30;3.08;;;;;;;3.17;66.13;101429.94;4944380;29;20050;-87
2021/03/07 11:26:35;;;;;;;12.38;4.05;;;;;;;3.30;65.80;101417.59;4917157;29;20055;-86
2021/03/07 11:29:02;;;;;;;20.30;4.30;;;;;;;3.09;66.13;101423.13;4918148;28;20150;-86
2021/03/07 11:31:29;;;;;;;18.38;4.35;;;;;;;3.26;66.64;101403.78;4953002;28;20039;-88
2021/03/07 11:33:56;;;;;;;13.32;3.95;;;;;;;3.10;66.42;101415.28;4937552;29;20150;-88
2021/03/07 11:36:26;;;;;;;10.35;4.80;;;;;;;3.25;66.49;101401.19;4926037;29;20517;-87
2021/03/07 11:38:53;;;;;;;5.97;3.45;;;;;;;3.24;65.75;101399.47;4909343;29;20043;-88
2021/03/07 11:41:22;;;;;;;14.07;3.92;;;;;;;3.41;65.54;101407.00;4959821;28;21012;-91
2021/03/07 11:43:49;;;;;;;13.43;4.05;;;;;;;3.34;65.68;101395.84;4964428;28;20066;-90
2021/03/07 11:46:16;;;;;;;11.23;4.20;;;;;;;3.23;65.78;101390.78;4932057;29;20094;-89
2021/03/07 11:48:44;;;;;;;6.32;3.63;;;;;;;3.26;66.01;101385.56;4946519;29;20047;-88
2021/03/07 11:51:12;;;;;;;16.98;4.53;;;;;;;3.36;65.65;101391.47;4945102;29;20526;-89